Time;durP1;ratioP1;P1;durP2;ratioP2;P2;SDS_P1;SDS_P2;PMS_P1;PMS_P2;Temp;Humidity;BMP_temperature;BMP_pressure;BME280_temperature;BME280_humidity;BME280_pressure;Samples;Min_cycle;Max_cycle;Signal;HPM_P1;HPM_P2
2023/01/21 00:01:15;;;;;;;52.23;24.07;;;-1.10;99.90;;;;;;4990811;28;20022;-57
2023/01/21 00:03:41;;;;;;;52.53;23.20;;;-1.20;99.90;;;;;;4992124;28;20123;-57
2023/01/21 00:06:07;;;;;;;53.70;23.20;;;-1.20;99.90;;;;;;4994733;28;20101;-58
2023/01/21 00:08:33;;;;;;;53.97;24.03;;;-1.20;99.90;;;;;;4976731;28;20030;-58
2023/01/21 00:11:13;;;;;;;55.23;24.30;;;-1.20;99.90;;;;;;4994480;28;20049;-57
2023/01/21 00:13:38;;;;;;;54.50;23.83;;;-1.20;99.90;;;;;;4994082;28;20030;-57
2023/01/21 00:16:05;;;;;;;53.67;23.10;;;-1.20;99.90;;;;;;4994221;28;20497;-58
2023/01/21 00:18:32;;;;;;;56.93;24.57;;;-1.30;99.90;;;;;;4993943;28;20030;-57
2023/01/21 00:20:58;;;;;;;58.90;24.47;;;-1.30;99.90;;;;;;4994147;28;20479;-58
2023/01/21 00:23:24;;;;;;;57.47;23.90;;;-1.30;99.90;;;;;;4993879;28;20085;-57
2023/01/21 00:25:59;;;;;;;53.13;23.67;;;-1.30;99.90;;;;;;4994020;28;20081;-57
2023/01/21 00:28:27;;;;;;;57.70;25.03;;;-1.30;99.90;;;;;;4993710;28;20042;-57
2023/01/21 00:30:58;;;;;;;47.47;19.20;;;-1.30;99.90;;;;;;4993857;28;20049;-58
2023/01/21 00:33:24;;;;;;;58.07;24.57;;;-1.30;99.90;;;;;;4976403;28;20045;-58
2023/01/21 00:36:01;;;;;;;55.80;24.37;;;-1.30;99.90;;;;;;4993869;28;20038;-57
2023/01/21 00:38:28;;;;;;;54.17;23.57;;;-1.40;99.90;;;;;;4993671;28;20058;-58
2023/01/21 00:40:59;;;;;;;54.70;23.73;;;-1.40;99.90;;;;;;4993747;28;20101;-58
2023/01/21 00:43:25;;;;;;;57.43;25.83;;;-1.40;99.90;;;;;;4993610;28;20105;-58
2023/01/21 00:45:50;;;;;;;61.87;25.53;;;-1.40;99.90;;;;;;4993904;28;20454;-58
2023/01/21 00:48:16;;;;;;;62.07;25.17;;;-1.40;99.90;;;;;;4993526;28;20041;-57
2023/01/21 00:50:42;;;;;;;59.20;24.33;;;-1.40;99.90;;;;;;4993635;28;20045;-58
2023/01/21 00:53:07;;;;;;;57.57;23.10;;;-1.40;99.90;;;;;;4976225;28;20301;-57
2023/01/21 00:55:33;;;;;;;60.33;25.20;;;-1.50;99.90;;;;;;4993187;28;20037;-57
2023/01/21 00:57:59;;;;;;;55.10;24.37;;;-1.50;99.90;;;;;;4993240;28;20034;-57
2023/01/21 01:00:24;;;;;;;54.53;23.27;;;-1.50;99.90;;;;;;4993395;28;20041;-57
2023/01/21 01:02:50;;;;;;;59.73;24.07;;;-1.50;99.90;;;;;;4993491;28;20073;-57
2023/01/21 01:05:16;;;;;;;57.63;25.60;;;-1.50;99.90;;;;;;4993192;28;20037;-57
2023/01/21 01:07:42;;;;;;;56.73;24.43;;;-1.60;99.90;;;;;;4993056;28;20034;-57
2023/01/21 01:10:09;;;;;;;55.63;24.53;;;-1.60;99.90;;;;;;4993161;28;20065;-57
2023/01/21 01:12:35;;;;;;;55.33;24.27;;;-1.60;99.90;;;;;;4993509;28;20038;-58
2023/01/21 01:15:00;;;;;;;57.03;24.13;;;-1.60;99.90;;;;;;4992845;28;20105;-57
2023/01/21 01:17:26;;;;;;;57.20;23.97;;;-1.60;99.90;;;;;;4993013;28;20058;-57
2023/01/21 01:19:52;;;;;;;58.27;24.33;;;-1.60;99.90;;;;;;4993076;28;20431;-57
2023/01/21 01:22:18;;;;;;;58.47;24.30;;;-1.70;99.90;;;;;;4993008;28;20430;-57
2023/01/21 01:24:44;;;;;;;56.60;24.70;;;-1.60;99.90;;;;;;4975245;28;20031;-57
2023/01/21 01:27:09;;;;;;;51.00;22.53;;;-1.70;99.90;;;;;;4992523;28;20041;-57
2023/01/21 01:29:35;;;;;;;54.03;22.07;;;-1.70;99.90;;;;;;4992960;28;20035;-58
2023/01/21 01:32:01;;;;;;;60.03;25.03;;;-1.70;99.90;;;;;;4993017;28;20026;-57
2023/01/21 01:34:26;;;;;;;60.93;25.03;;;-1.70;99.90;;;;;;4992699;28;20505;-58
2023/01/21 01:36:52;;;;;;;58.27;24.17;;;-1.70;99.90;;;;;;4992399;28;20030;-57
2023/01/21 01:39:18;;;;;;;56.53;24.30;;;-1.70;99.90;;;;;;4992536;28;20117;-57
2023/01/21 01:41:43;;;;;;;53.77;24.00;;;-1.70;99.90;;;;;;4992685;28;20027;-57
2023/01/21 01:45:06;;;;;;;59.53;25.37;;;-1.70;99.90;;;;;;4992426;28;20402;-57
2023/01/21 01:47:41;;;;;;;52.23;23.20;;;-1.70;99.90;;;;;;4931988;29;20102;-57
2023/01/21 01:50:11;;;;;;;58.30;22.73;;;-1.80;99.90;;;;;;4932241;29;20035;-57
2023/01/21 01:52:38;;;;;;;51.97;23.20;;;-1.80;99.90;;;;;;4948782;28;20416;-58
2023/01/21 01:55:05;;;;;;;63.23;24.17;;;-1.80;99.90;;;;;;4992117;28;20479;-58
2023/01/21 01:57:37;;;;;;;59.57;24.53;;;-1.80;99.90;;;;;;4992212;28;20034;-57
2023/01/21 02:00:06;;;;;;;59.83;25.43;;;-1.80;99.90;;;;;;4992268;28;20080;-57
2023/01/21 02:02:38;;;;;;;55.40;23.83;;;-1.80;99.90;;;;;;4992764;28;20421;-57
2023/01/21 02:05:07;;;;;;;60.87;24.47;;;-1.80;99.90;;;;;;4992058;28;20491;-57
2023/01/21 02:07:41;;;;;;;54.53;24.50;;;-1.80;99.90;;;;;;4991988;28;20445;-57
2023/01/21 02:10:12;;;;;;;58.57;23.60;;;-1.80;99.90;;;;;;4992121;28;20124;-57
2023/01/21 02:12:42;;;;;;;61.93;23.60;;;-1.80;99.90;;;;;;4992028;28;20065;-57
2023/01/21 02:15:08;;;;;;;56.05;23.67;;;-1.90;99.90;;;;;;4991810;28;20077;-57
2023/01/21 02:17:40;;;;;;;60.23;25.57;;;-1.90;99.90;;;;;;4991771;28;20032;-56
2023/01/21 02:20:38;;;;;;;56.33;24.03;;;-1.80;99.90;;;;;;4991943;28;20472;-57
2023/01/21 02:23:09;;;;;;;59.57;23.80;;;-1.90;99.90;;;;;;4974578;28;20924;-56
2023/01/21 02:25:50;;;;;;;61.73;25.87;;;-1.90;99.90;;;;;;4991201;28;20061;-56
2023/01/21 02:28:49;;;;;;;57.13;23.80;;;-1.90;99.90;;;;;;4991800;28;20038;-56
2023/01/21 02:31:27;;;;;;;42.53;18.45;;;-1.90;99.90;;;;;;4991891;28;20489;-57
2023/01/21 02:34:14;;;;;;;57.30;24.53;;;-1.90;99.90;;;;;;4991464;28;20046;-57
2023/01/21 02:36:59;;;;;;;57.90;25.33;;;-1.90;99.90;;;;;;4991678;28;20443;-56
2023/01/21 02:39:51;;;;;;;58.20;25.03;;;-1.90;99.90;;;;;;4991639;28;20050;-57
2023/01/21 02:42:34;;;;;;;58.27;24.50;;;-1.90;99.90;;;;;;4991574;28;20453;-57
2023/01/21 02:45:08;;;;;;;56.43;24.50;;;-1.90;99.90;;;;;;4991469;28;20437;-57
2023/01/21 02:48:04;;;;;;;56.57;25.23;;;-1.90;99.90;;;;;;4991212;28;20045;-57
2023/01/21 02:50:39;;;;;;;57.87;24.63;;;-1.90;99.90;;;;;;4991365;28;20421;-57
2023/01/21 02:53:05;;;;;;;56.27;24.30;;;-1.90;99.90;;;;;;4991767;28;20062;-56
2023/01/21 02:55:35;;;;;;;55.13;24.00;;;-1.90;99.90;;;;;;4991468;28;20026;-57
2023/01/21 02:58:09;;;;;;;;;;;-1.90;99.90;;;;;;4991752;28;20030;-57
2023/01/21 03:00:47;;;;;;;54.43;21.80;;;-1.90;99.90;;;;;;4991194;28;19909;-57
2023/01/21 03:03:24;;;;;;;58.63;24.07;;;-1.90;99.90;;;;;;4991217;28;20095;-56
2023/01/21 03:06:17;;;;;;;59.47;25.90;;;-1.90;99.90;;;;;;4991389;28;20480;-57
2023/01/21 03:09:12;;;;;;;56.90;24.43;;;-1.90;99.90;;;;;;4991000;28;20118;-57
2023/01/21 03:11:42;;;;;;;60.33;23.90;;;-1.90;99.90;;;;;;4991299;28;20061;-56
2023/01/21 03:17:21;;;;;;;55.10;23.40;;;-1.90;99.90;;;;;;4990947;28;20504;-58
2023/01/21 03:19:54;;;;;;;54.47;23.30;;;-1.90;99.90;;;;;;4991190;28;20034;-56
2023/01/21 03:22:24;;;;;;;55.47;25.10;;;-1.90;99.90;;;;;;4991351;28;20181;-56
2023/01/21 03:24:52;;;;;;;58.23;24.87;;;-2.00;99.90;;;;;;4991265;28;20041;-58
2023/01/21 03:27:22;;;;;;;59.20;24.33;;;-1.90;99.90;;;;;;5008237;23;20069;-48
2023/01/21 03:29:53;;;;;;;58.77;24.60;;;-2.00;99.90;;;;;;5030064;28;20052;-47
2023/01/21 03:32:20;;;;;;;58.43;24.37;;;-2.00;99.90;;;;;;5030444;28;20613;-44
2023/01/21 03:34:50;;;;;;;58.60;24.07;;;-2.00;99.90;;;;;;5030334;28;20460;-46
2023/01/21 03:37:35;;;;;;;56.97;24.83;;;-2.10;99.90;;;;;;5030169;28;20401;-44
2023/01/21 03:40:29;;;;;;;55.83;24.13;;;-2.10;99.90;;;;;;5034145;28;20431;-44
2023/01/21 03:42:56;;;;;;;54.13;23.53;;;-2.10;99.90;;;;;;5004900;28;20391;-47
2023/01/21 03:45:53;;;;;;;56.63;24.60;;;-2.20;99.90;;;;;;5034050;28;20440;-45
2023/01/21 03:48:34;;;;;;;62.20;24.97;;;-2.20;99.90;;;;;;5033674;28;20037;-45
2023/01/21 03:51:06;;;;;;;62.63;25.23;;;-2.20;99.90;;;;;;5034096;28;20022;-46
2023/01/21 03:53:32;;;;;;;60.23;24.90;;;-2.20;99.90;;;;;;5033854;28;20458;-49
2023/01/21 03:55:58;;;;;;;61.47;25.80;;;-2.20;99.90;;;;;;5034037;28;20655;-46
2023/01/21 03:58:25;;;;;;;66.20;27.90;;;-2.20;99.90;;;;;;5032478;28;20462;-49
2023/01/21 04:00:51;;;;;;;61.80;25.17;;;-2.20;99.90;;;;;;5034306;28;20124;-49
2023/01/21 04:03:16;;;;;;;68.97;26.13;;;-2.20;99.90;;;;;;5033820;28;20559;-45
2023/01/21 04:05:42;;;;;;;58.17;25.17;;;-2.20;99.90;;;;;;5033648;28;20545;-47
2023/01/21 04:08:08;;;;;;;65.40;26.13;;;-2.20;99.90;;;;;;5033374;28;20033;-49
2023/01/21 04:10:33;;;;;;;65.47;26.17;;;-2.20;99.90;;;;;;5033793;28;20037;-47
2023/01/21 04:12:59;;;;;;;62.30;27.33;;;-2.20;99.90;;;;;;5033699;28;20029;-45
2023/01/21 04:15:25;;;;;;;59.43;25.27;;;-2.20;99.90;;;;;;5033410;28;20033;-48
2023/01/21 04:17:50;;;;;;;60.00;25.67;;;-2.20;99.90;;;;;;5033409;28;20071;-49
2023/01/21 04:20:17;;;;;;;58.27;25.30;;;-2.20;99.90;;;;;;5033559;28;20091;-45
2023/01/21 04:22:43;;;;;;;61.93;26.80;;;-2.20;99.90;;;;;;5033841;28;20025;-46
2023/01/21 04:25:09;;;;;;;65.97;26.23;;;-2.20;99.90;;;;;;5033142;28;20965;-47
2023/01/21 04:27:35;;;;;;;65.33;25.93;;;-2.20;99.90;;;;;;5032948;28;20422;-51
2023/01/21 04:30:01;;;;;;;65.40;26.40;;;-2.20;99.90;;;;;;5033188;28;20432;-49
2023/01/21 04:32:27;;;;;;;58.50;24.77;;;-2.20;99.90;;;;;;5033489;28;20047;-45
2023/01/21 04:34:53;;;;;;;60.90;25.93;;;-2.20;99.90;;;;;;5033055;28;20030;-47
2023/01/21 04:37:18;;;;;;;65.87;26.50;;;-2.20;99.90;;;;;;5033276;28;20028;-48
2023/01/21 04:39:44;;;;;;;65.50;27.53;;;-2.20;99.90;;;;;;5033220;28;20556;-47
2023/01/21 04:42:10;;;;;;;59.87;26.40;;;-2.20;99.90;;;;;;5033199;28;20541;-47
2023/01/21 04:44:35;;;;;;;62.00;24.63;;;-2.30;99.90;;;;;;5032906;28;20033;-46
2023/01/21 04:47:01;;;;;;;62.03;25.93;;;-2.20;99.90;;;;;;5032879;28;20037;-47
2023/01/21 04:49:27;;;;;;;63.77;26.07;;;-2.20;99.90;;;;;;5032599;28;20038;-48
2023/01/21 04:51:52;;;;;;;59.83;25.73;;;-2.20;99.90;;;;;;5033070;28;20501;-49
2023/01/21 04:54:18;;;;;;;64.67;27.53;;;-2.30;99.90;;;;;;5032825;28;20098;-50
2023/01/21 04:56:44;;;;;;;62.17;27.17;;;-2.30;99.90;;;;;;5032859;28;20438;-48
2023/01/21 04:59:10;;;;;;;63.37;27.43;;;-2.30;99.90;;;;;;5032722;28;20030;-45
2023/01/21 05:01:36;;;;;;;59.97;26.37;;;-2.30;99.90;;;;;;5033051;28;20116;-49
2023/01/21 05:04:02;;;;;;;69.57;26.07;;;-2.30;99.90;;;;;;5032762;28;20534;-50
2023/01/21 05:06:27;;;;;;;61.10;27.10;;;-2.30;99.90;;;;;;5032907;28;20030;-47
2023/01/21 05:08:53;;;;;;;63.77;26.37;;;-2.30;99.90;;;;;;5032607;28;20056;-47
2023/01/21 05:11:19;;;;;;;64.97;27.03;;;-2.30;99.90;;;;;;5032675;28;20029;-48
2023/01/21 05:13:45;;;;;;;66.13;25.53;;;-2.30;99.90;;;;;;5032794;28;20033;-46
2023/01/21 05:16:10;;;;;;;65.27;26.80;;;-2.30;99.90;;;;;;5032738;28;20030;-47
2023/01/21 05:18:37;;;;;;;60.90;25.30;;;-2.30;99.90;;;;;;5032196;28;20443;-48
2023/01/21 05:21:03;;;;;;;60.23;26.00;;;-2.40;99.90;;;;;;5032645;28;20433;-50
2023/01/21 05:23:29;;;;;;;62.50;26.63;;;-2.40;99.90;;;;;;5032255;28;20428;-44
2023/01/21 05:25:55;;;;;;;60.70;25.43;;;-2.40;99.90;;;;;;5032438;28;20435;-45
2023/01/21 05:28:21;;;;;;;56.77;25.23;;;-2.40;99.90;;;;;;5031835;28;20494;-45
2023/01/21 05:30:46;;;;;;;60.87;25.27;;;-2.40;99.90;;;;;;5032234;28;20095;-46
2023/01/21 05:33:12;;;;;;;59.50;25.33;;;-2.40;99.90;;;;;;5032599;28;20025;-46
2023/01/21 05:35:38;;;;;;;62.93;26.37;;;-2.40;99.90;;;;;;5031883;28;20057;-44
2023/01/21 05:38:03;;;;;;;67.50;26.80;;;-2.40;99.90;;;;;;5032090;28;20030;-47
2023/01/21 05:40:29;;;;;;;61.17;24.63;;;-2.40;99.90;;;;;;5032075;28;20394;-44
2023/01/21 05:42:55;;;;;;;62.57;25.00;;;-2.40;99.90;;;;;;5032172;28;20040;-48
2023/01/21 05:45:21;;;;;;;58.40;25.07;;;-2.50;99.90;;;;;;5031985;28;20041;-49
2023/01/21 05:47:46;;;;;;;65.47;24.40;;;-2.50;99.90;;;;;;5031758;28;20128;-49
2023/01/21 05:50:12;;;;;;;62.90;24.80;;;-2.60;99.90;;;;;;5031808;28;20048;-49
2023/01/21 05:52:38;;;;;;;62.10;25.77;;;-2.60;99.90;;;;;;5031997;28;20042;-44
2023/01/21 05:55:05;;;;;;;67.73;25.40;;;-2.60;99.90;;;;;;5032069;28;20486;-47
2023/01/21 05:57:31;;;;;;;63.30;26.53;;;-2.70;99.90;;;;;;5031467;28;20523;-49
2023/01/21 05:59:57;;;;;;;62.17;25.00;;;-2.60;99.90;;;;;;5031735;28;20428;-44
2023/01/21 06:02:23;;;;;;;60.50;25.10;;;-2.70;99.90;;;;;;5030904;28;20431;-46
2023/01/21 06:04:49;;;;;;;61.70;26.73;;;-2.70;99.90;;;;;;5031514;28;20432;-45
2023/01/21 06:07:15;;;;;;;63.40;26.97;;;-2.80;99.90;;;;;;5031280;28;20451;-44
2023/01/21 06:09:41;;;;;;;62.40;26.43;;;-2.70;99.90;;;;;;5031554;28;20120;-45
2023/01/21 06:12:06;;;;;;;66.23;27.47;;;-2.80;99.90;;;;;;5031472;28;20048;-45
2023/01/21 06:14:32;;;;;;;63.73;26.60;;;-2.80;99.90;;;;;;5031276;28;20029;-50
2023/01/21 06:16:58;;;;;;;67.83;26.40;;;-2.80;99.90;;;;;;5031120;28;20494;-45
2023/01/21 06:19:23;;;;;;;65.07;25.80;;;-2.80;99.90;;;;;;5031312;28;20022;-44
2023/01/21 06:21:51;;;;;;;63.30;25.20;;;-2.80;99.90;;;;;;5031355;28;20030;-45
2023/01/21 06:24:17;;;;;;;60.77;25.83;;;-2.80;99.90;;;;;;5030956;28;20025;-48
2023/01/21 06:26:42;;;;;;;68.37;25.67;;;-2.80;99.90;;;;;;5030820;28;21001;-47
2023/01/21 06:29:08;;;;;;;59.73;25.27;;;-2.80;99.90;;;;;;5030939;28;20120;-47
2023/01/21 06:31:34;;;;;;;64.23;25.60;;;-2.70;99.90;;;;;;5031313;28;20045;-45
2023/01/21 06:33:59;;;;;;;63.43;26.07;;;-2.70;99.90;;;;;;5030911;28;20055;-48
2023/01/21 06:36:25;;;;;;;61.70;26.00;;;-2.70;99.90;;;;;;5030985;28;20553;-44
2023/01/21 06:38:51;;;;;;;61.00;25.63;;;-2.70;99.90;;;;;;5030949;28;20060;-46
2023/01/21 06:41:16;;;;;;;64.57;26.37;;;-2.70;99.90;;;;;;5030973;28;20079;-48
2023/01/21 06:43:42;;;;;;;68.17;25.43;;;-2.70;99.90;;;;;;5031162;28;20548;-49
2023/01/21 06:46:09;;;;;;;60.67;25.90;;;-2.70;99.90;;;;;;5030833;28;20172;-45
2023/01/21 06:48:35;;;;;;;65.23;26.33;;;-2.70;99.90;;;;;;5030521;28;20140;-47
2023/01/21 06:51:00;;;;;;;64.63;26.20;;;-2.70;99.90;;;;;;5030951;28;20983;-45
2023/01/21 06:53:26;;;;;;;65.30;27.13;;;-2.70;99.90;;;;;;5030651;28;20044;-46
2023/01/21 06:55:52;;;;;;;61.83;26.40;;;-2.70;99.90;;;;;;5030983;28;20090;-51
2023/01/21 06:58:18;;;;;;;65.67;26.30;;;-2.70;99.90;;;;;;5030513;28;20029;-44
2023/01/21 07:00:44;;;;;;;58.60;25.60;;;-2.70;99.90;;;;;;5030892;28;20436;-46
2023/01/21 07:03:09;;;;;;;65.50;25.63;;;-2.70;99.90;;;;;;5030885;28;20033;-47
2023/01/21 07:05:35;;;;;;;67.83;28.30;;;-2.70;99.90;;;;;;5030528;28;20109;-50
2023/01/21 07:08:01;;;;;;;63.53;25.73;;;-2.80;99.90;;;;;;5030420;28;20056;-45
2023/01/21 07:10:27;;;;;;;64.33;26.60;;;-2.80;99.90;;;;;;5030395;28;20048;-46
2023/01/21 07:12:52;;;;;;;68.43;26.40;;;-2.80;99.90;;;;;;5030682;28;20037;-47
2023/01/21 07:15:18;;;;;;;67.97;27.30;;;-2.80;99.90;;;;;;5030338;28;20033;-48
2023/01/21 07:17:44;;;;;;;69.23;26.80;;;-2.70;99.90;;;;;;5030329;28;20057;-45
2023/01/21 07:20:13;;;;;;;70.47;27.23;;;-2.70;99.90;;;;;;5030669;28;20032;-44
2023/01/21 07:22:38;;;;;;;72.50;27.50;;;-2.70;99.90;;;;;;5030605;28;20045;-46
2023/01/21 07:25:05;;;;;;;60.90;25.17;;;-2.70;99.90;;;;;;5030237;28;20486;-44
2023/01/21 07:27:31;;;;;;;63.97;26.17;;;-2.70;99.90;;;;;;5029962;28;20025;-50
2023/01/21 07:29:56;;;;;;;71.57;27.67;;;-2.70;99.90;;;;;;5030485;28;20424;-47
2023/01/21 07:32:22;;;;;;;71.33;27.03;;;-2.70;99.90;;;;;;5030409;28;20030;-49
2023/01/21 07:34:48;;;;;;;71.23;27.13;;;-2.70;99.90;;;;;;5030136;28;20508;-44
2023/01/21 07:37:14;;;;;;;71.97;27.93;;;-2.70;99.90;;;;;;5030110;28;20466;-45
2023/01/21 07:39:39;;;;;;;72.13;26.70;;;-2.70;99.90;;;;;;5030319;28;20073;-51
2023/01/21 07:42:05;;;;;;;80.77;28.43;;;-2.70;99.90;;;;;;5030620;28;20313;-44
2023/01/21 07:44:31;;;;;;;66.90;26.70;;;-2.70;99.90;;;;;;5030060;28;20447;-50
2023/01/21 07:46:56;;;;;;;71.70;28.57;;;-2.70;99.90;;;;;;5030014;28;20029;-45
2023/01/21 07:49:22;;;;;;;71.30;27.83;;;-2.70;99.90;;;;;;5030243;28;20037;-45
2023/01/21 07:51:48;;;;;;;76.93;27.57;;;-2.70;99.90;;;;;;5030251;28;20040;-45
2023/01/21 07:54:14;;;;;;;66.03;26.63;;;-2.70;99.90;;;;;;5030029;28;20535;-49
2023/01/21 07:56:40;;;;;;;72.10;27.77;;;-2.80;99.90;;;;;;5030302;28;20211;-50
2023/01/21 07:59:06;;;;;;;74.10;28.53;;;-2.70;99.90;;;;;;5030075;28;20979;-45
2023/01/21 08:01:32;;;;;;;77.83;29.83;;;-2.80;99.90;;;;;;5030127;28;20084;-44
2023/01/21 08:03:58;;;;;;;75.50;29.43;;;-2.70;99.90;;;;;;5030083;28;20036;-49
2023/01/21 08:06:25;;;;;;;74.47;27.10;;;-2.70;99.90;;;;;;5029826;28;20030;-47
2023/01/21 08:08:50;;;;;;;77.47;28.50;;;-2.70;99.90;;;;;;5029945;28;20439;-49
2023/01/21 08:11:16;;;;;;;70.97;28.23;;;-2.70;99.90;;;;;;5030233;28;20456;-45
2023/01/21 08:13:43;;;;;;;74.10;28.37;;;-2.70;99.90;;;;;;5029752;28;20034;-50
2023/01/21 08:16:11;;;;;;;83.70;30.53;;;-2.60;99.90;;;;;;5029761;28;20026;-47
2023/01/21 08:18:37;;;;;;;75.73;28.23;;;-2.60;99.90;;;;;;5029722;28;20530;-50
2023/01/21 08:21:02;;;;;;;80.20;28.70;;;-2.50;99.90;;;;;;5029966;28;20116;-47
2023/01/21 08:23:28;;;;;;;78.03;28.93;;;-2.40;99.90;;;;;;5030012;28;20079;-46
2023/01/21 08:25:54;;;;;;;73.83;28.07;;;-2.40;99.90;;;;;;5033347;28;20037;-47
2023/01/21 08:28:21;;;;;;;72.40;28.90;;;-2.30;99.90;;;;;;5033110;28;20084;-46
2023/01/21 08:30:47;;;;;;;78.00;29.90;;;-2.20;99.90;;;;;;5033316;28;20053;-44
2023/01/21 08:33:13;;;;;;;69.27;28.27;;;-2.20;99.90;;;;;;5033442;28;20424;-46
2023/01/21 08:35:39;;;;;;;76.10;28.47;;;-2.20;99.90;;;;;;5033072;28;20402;-51
2023/01/21 08:38:05;;;;;;;85.93;31.00;;;-2.10;99.90;;;;;;5033254;28;20091;-44
2023/01/21 08:40:31;;;;;;;81.03;30.93;;;-2.10;99.90;;;;;;5033141;28;20075;-45
2023/01/21 08:43:01;;;;;;;75.43;29.07;;;-2.00;99.90;;;;;;5033185;28;20033;-45
2023/01/21 08:45:27;;;;;;;79.87;30.43;;;-1.90;99.90;;;;;;5032928;28;20029;-46
2023/01/21 08:47:53;;;;;;;76.73;30.43;;;-1.80;99.90;;;;;;5032850;28;20044;-49
2023/01/21 08:50:19;;;;;;;77.53;29.23;;;-1.70;99.90;;;;;;5032905;28;20116;-48
2023/01/21 08:52:52;;;;;;;77.47;30.43;;;-1.60;99.90;;;;;;5033100;28;20104;-50
2023/01/21 08:55:18;;;;;;;74.00;29.33;;;-1.60;99.90;;;;;;5032691;28;20171;-49
2023/01/21 08:57:44;;;;;;;77.37;29.20;;;-1.60;99.90;;;;;;5032607;28;20029;-44
2023/01/21 09:00:10;;;;;;;72.43;28.30;;;-1.50;99.90;;;;;;5032865;28;20481;-46
2023/01/21 09:02:36;;;;;;;74.63;28.53;;;-1.40;99.90;;;;;;5032752;28;20029;-46
2023/01/21 09:05:02;;;;;;;75.90;28.80;;;-1.40;99.90;;;;;;5032579;28;20163;-48
2023/01/21 09:07:27;;;;;;;75.57;27.13;;;-1.30;99.90;;;;;;5032691;28;20386;-47
2023/01/21 09:09:53;;;;;;;69.20;28.00;;;-1.20;99.90;;;;;;5032659;28;20112;-46
2023/01/21 09:12:19;;;;;;;71.23;27.60;;;-1.20;99.90;;;;;;5015010;28;20029;-48
2023/01/21 09:14:44;;;;;;;71.67;27.73;;;-1.10;99.90;;;;;;5032367;28;20117;-48
2023/01/21 09:17:10;;;;;;;68.37;26.90;;;-1.10;99.90;;;;;;5032457;28;20069;-48
2023/01/21 09:19:36;;;;;;;64.40;27.03;;;-1.10;99.90;;;;;;5032356;28;20052;-48
2023/01/21 09:22:01;;;;;;;64.23;26.23;;;-1.00;99.90;;;;;;5031469;28;20037;-47
2023/01/21 09:24:27;;;;;;;68.10;27.67;;;-1.00;99.90;;;;;;5032599;28;20044;-46
2023/01/21 09:26:54;;;;;;;62.77;24.93;;;-1.00;99.90;;;;;;5032096;28;20079;-52
2023/01/21 09:29:19;;;;;;;75.53;28.47;;;-0.90;99.90;;;;;;5032203;28;20042;-50
2023/01/21 09:31:45;;;;;;;63.57;27.10;;;-0.90;99.90;;;;;;5032301;28;20084;-48
2023/01/21 09:34:11;;;;;;;62.00;25.40;;;-0.90;99.90;;;;;;5032018;28;20037;-45
2023/01/21 09:36:37;;;;;;;62.30;25.00;;;-0.80;99.90;;;;;;5032134;28;20071;-45
2023/01/21 09:39:04;;;;;;;63.67;25.70;;;-0.70;99.90;;;;;;5032185;28;20069;-47
2023/01/21 09:41:40;;;;;;;65.73;25.27;;;-0.70;99.90;;;;;;5032137;28;20030;-46
2023/01/21 09:44:15;;;;;;;67.10;25.63;;;-0.70;99.90;;;;;;5031908;28;20375;-46
2023/01/21 09:46:49;;;;;;;61.47;25.30;;;-0.70;99.90;;;;;;5031670;28;20397;-47
2023/01/21 09:49:24;;;;;;;60.50;25.90;;;-0.60;99.90;;;;;;5032403;28;20029;-47
2023/01/21 09:52:06;;;;;;;58.13;25.13;;;-0.60;99.90;;;;;;5032066;28;20441;-47
2023/01/21 09:54:33;;;;;;;69.50;26.27;;;-0.50;99.90;;;;;;5031687;28;20509;-47
2023/01/21 09:57:23;;;;;;;56.97;24.37;;;-0.60;99.90;;;;;;5031608;28;20029;-48
2023/01/21 09:59:57;;;;;;;63.40;25.10;;;-0.50;99.90;;;;;;5031888;28;20084;-46
2023/01/21 10:02:59;;;;;;;66.47;26.53;;;-0.50;99.90;;;;;;5031883;28;20032;-50
2023/01/21 10:05:57;;;;;;;72.00;27.67;;;-0.50;99.90;;;;;;4999931;28;20045;-50
2023/01/21 10:08:51;;;;;;;65.50;26.43;;;-0.50;99.90;;;;;;5031524;28;20044;-51
2023/01/21 10:11:40;;;;;;;61.97;25.60;;;-0.50;99.90;;;;;;5031775;28;20045;-48
2023/01/21 10:14:34;;;;;;;73.60;26.25;;;-0.50;99.90;;;;;;5031558;28;20155;-46
2023/01/21 10:17:34;;;;;;;68.63;26.07;;;-0.40;99.90;;;;;;5031466;28;20041;-49
2023/01/21 10:20:22;;;;;;;67.30;24.73;;;-0.30;99.90;;;;;;5031567;28;20038;-47
2023/01/21 10:23:01;;;;;;;67.47;25.63;;;-0.20;99.90;;;;;;5031632;28;20052;-50
2023/01/21 10:25:29;;;;;;;63.65;24.98;;;-0.10;99.90;;;;;;5031313;28;20030;-47
2023/01/21 10:28:00;;;;;;;65.13;24.83;;;-0.10;99.90;;;;;;5031077;28;20033;-50
2023/01/21 10:30:31;;;;;;;65.83;26.97;;;-0.10;99.90;;;;;;5031386;28;20047;-50
2023/01/21 10:32:56;;;;;;;63.37;25.10;;;0.00;99.90;;;;;;5031588;28;20051;-48
2023/01/21 10:35:44;;;;;;;61.47;24.97;;;0.00;99.90;;;;;;5031098;28;20112;-52
2023/01/21 10:38:37;;;;;;;65.00;26.27;;;0.00;99.90;;;;;;5031274;28;20482;-51
2023/01/21 10:41:44;;;;;;;65.67;25.93;;;0.00;99.90;;;;;;5031334;28;20482;-48
2023/01/21 10:44:25;;;;;;;62.03;24.37;;;0.00;99.90;;;;;;5004034;28;20103;-52
2023/01/21 10:46:51;;;;;;;65.87;25.03;;;0.10;99.90;;;;;;5030574;28;20096;-49
2023/01/21 10:49:35;;;;;;;67.60;25.63;;;0.10;99.90;;;;;;5031068;28;20128;-49
2023/01/21 10:52:23;;;;;;;64.00;24.90;;;0.10;99.90;;;;;;5031328;28;20099;-47
2023/01/21 10:55:00;;;;;;;63.93;24.33;;;0.30;99.90;;;;;;5030896;28;20500;-48
2023/01/21 10:57:39;;;;;;;65.63;24.93;;;0.20;99.90;;;;;;5030685;28;20036;-48
2023/01/21 11:00:20;;;;;;;64.13;25.60;;;0.20;99.90;;;;;;5031255;28;20022;-49
2023/01/21 11:02:49;;;;;;;62.73;25.53;;;0.20;99.90;;;;;;5031088;28;20501;-47
2023/01/21 11:05:15;;;;;;;66.93;24.83;;;0.30;99.90;;;;;;5031036;28;20425;-47
2023/01/21 11:07:42;;;;;;;65.00;24.90;;;0.20;99.90;;;;;;5030571;28;20482;-46
2023/01/21 11:10:13;;;;;;;67.97;24.57;;;0.40;99.90;;;;;;5030959;28;20466;-50
2023/01/21 11:12:39;;;;;;;64.63;25.30;;;0.40;99.90;;;;;;5031307;28;20116;-48
2023/01/21 11:15:14;;;;;;;70.17;25.87;;;0.40;99.90;;;;;;5030554;28;20120;-49
2023/01/21 11:17:44;;;;;;;63.47;24.60;;;0.50;99.90;;;;;;5030714;28;20459;-50
2023/01/21 11:20:32;;;;;;;;;;;0.50;99.90;;;;;;5031372;28;20041;-46
2023/01/21 11:23:00;;;;;;;61.53;22.97;;;0.60;99.90;;;;;;5030820;28;20381;-48
2023/01/21 11:25:36;;;;;;;59.40;24.20;;;0.60;99.90;;;;;;5030616;28;20025;-48
2023/01/21 11:28:03;;;;;;;60.40;24.57;;;0.70;99.90;;;;;;5030425;28;20453;-48
2023/01/21 11:30:37;;;;;;;57.63;23.10;;;0.70;99.90;;;;;;5030639;28;20482;-49
2023/01/21 11:33:19;;;;;;;56.07;23.87;;;0.90;99.90;;;;;;5030613;28;20191;-47
2023/01/21 11:35:45;;;;;;;57.17;23.17;;;1.10;99.90;;;;;;5029282;28;20127;-48
2023/01/21 11:38:46;;;;;;;55.27;22.73;;;1.20;99.90;;;;;;5030371;28;20068;-46
2023/01/21 11:41:11;;;;;;;55.43;22.90;;;1.30;99.90;;;;;;4987894;28;20042;-45
2023/01/21 11:43:44;;;;;;;54.17;22.10;;;1.30;99.90;;;;;;5030323;28;20267;-51
2023/01/21 11:46:24;;;;;;;50.37;22.27;;;1.40;99.90;;;;;;5030584;28;20064;-45
2023/01/21 11:49:12;;;;;;;50.90;20.73;;;1.50;99.90;;;;;;5030219;28;20124;-47
2023/01/21 11:51:39;;;;;;;52.93;20.63;;;1.50;99.90;;;;;;5030203;28;20037;-49
2023/01/21 11:54:18;;;;;;;51.77;20.60;;;1.60;99.90;;;;;;5029948;28;20030;-48
2023/01/21 11:56:59;;;;;;;47.53;20.35;;;1.60;99.90;;;;;;5030021;28;20064;-47
2023/01/21 11:59:33;;;;;;;45.27;19.67;;;1.70;99.90;;;;;;5031768;28;20466;-49
2023/01/21 12:02:11;;;;;;;42.87;19.40;;;1.70;99.90;;;;;;5033965;28;20025;-49
2023/01/21 12:04:49;;;;;;;43.50;19.83;;;1.70;99.90;;;;;;5033968;28;20038;-48
2023/01/21 12:07:25;;;;;;;46.40;20.03;;;1.70;99.90;;;;;;5033613;28;20047;-46
2023/01/21 12:10:12;;;;;;;46.10;18.33;;;1.70;99.90;;;;;;5033694;28;20149;-49
2023/01/21 12:13:16;;;;;;;43.17;19.07;;;1.80;99.90;;;;;;5033767;28;20040;-50
2023/01/21 12:16:13;;;;;;;42.63;17.93;;;1.90;99.90;;;;;;5033497;28;20558;-45
2023/01/21 12:19:05;;;;;;;43.00;18.63;;;1.90;99.90;;;;;;5033335;28;20398;-50
2023/01/21 12:21:34;;;;;;;41.57;19.47;;;1.90;99.90;;;;;;5033963;28;20217;-51
2023/01/21 12:24:08;;;;;;;49.40;20.58;;;1.90;99.90;;;;;;5033365;28;20108;-48
2023/01/21 12:26:49;;;;;;;44.87;18.87;;;1.90;99.90;;;;;;5033418;28;20361;-49
2023/01/21 12:29:46;;;;;;;42.30;18.70;;;1.80;99.90;;;;;;5033197;28;20496;-49
2023/01/21 12:32:18;;;;;;;41.67;17.70;;;1.90;99.90;;;;;;4996434;28;20037;-45
2023/01/21 12:35:01;;;;;;;43.83;18.50;;;1.90;99.90;;;;;;5033072;28;20120;-48
2023/01/21 12:37:45;;;;;;;43.70;18.97;;;1.90;99.90;;;;;;5033094;28;20066;-47
2023/01/21 12:40:21;;;;;;;44.57;19.10;;;1.90;99.90;;;;;;5033265;28;20083;-48
2023/01/21 12:42:52;;;;;;;43.20;18.00;;;1.90;99.90;;;;;;5033546;28;20033;-47
2023/01/21 12:45:26;;;;;;;39.90;17.53;;;1.90;99.90;;;;;;5033506;28;20059;-49
2023/01/21 12:48:09;;;;;;;44.30;18.73;;;1.80;99.90;;;;;;5032843;28;20041;-46
2023/01/21 12:51:02;;;;;;;45.10;17.50;;;1.80;99.90;;;;;;5033039;28;20035;-47